Time;durP1;ratioP1;P1;durP2;ratioP2;P2;SDS_P1;SDS_P2;PMS_P1;PMS_P2;Temp;Humidity;BMP_temperature;BMP_pressure;BME280_temperature;BME280_humidity;BME280_pressure;Samples;Min_cycle;Max_cycle;Signal;HPM_P1;HPM_P2
2022/07/21 00:00:30;;;;;;;18.40;16.70;;;22.20;99.90;;;;;;5023780;28;20303;-68
2022/07/21 00:02:56;;;;;;;18.83;17.37;;;22.30;99.90;;;;;;5019427;28;20183;-68
2022/07/21 00:05:23;;;;;;;21.13;19.20;;;22.40;99.90;;;;;;5018407;28;20429;-67
2022/07/21 00:07:49;;;;;;;20.50;18.90;;;22.40;99.90;;;;;;5025252;28;20410;-69
2022/07/21 00:10:16;;;;;;;20.67;18.57;;;22.40;99.90;;;;;;5018290;28;20478;-68
2022/07/21 00:12:42;;;;;;;20.07;18.37;;;22.40;99.90;;;;;;5018692;28;20922;-70
2022/07/21 00:15:09;;;;;;;21.80;19.70;;;22.30;99.90;;;;;;5020545;28;20458;-68
2022/07/21 00:17:35;;;;;;;21.17;19.30;;;22.20;99.90;;;;;;5022636;28;20457;-69
2022/07/21 00:20:01;;;;;;;20.03;18.37;;;21.90;99.90;;;;;;5012008;28;20447;-68
2022/07/21 00:22:27;;;;;;;19.47;17.87;;;21.90;99.90;;;;;;5017394;28;20186;-68
2022/07/21 00:24:53;;;;;;;18.53;16.90;;;21.90;99.90;;;;;;5007190;28;20916;-68
2022/07/21 00:27:18;;;;;;;21.73;20.03;;;21.90;99.90;;;;;;5006645;28;20430;-68
2022/07/21 00:29:44;;;;;;;18.77;17.23;;;21.90;99.90;;;;;;5023108;28;20422;-68
2022/07/21 00:32:10;;;;;;;20.50;18.60;;;22.00;99.90;;;;;;5021599;28;20598;-68
2022/07/21 00:34:35;;;;;;;21.27;19.27;;;22.00;99.90;;;;;;5014481;28;20703;-68
2022/07/21 00:37:01;;;;;;;20.20;18.57;;;22.00;99.90;;;;;;5009300;28;20191;-69
2022/07/21 00:39:27;;;;;;;22.07;20.10;;;22.10;99.90;;;;;;5017584;28;20179;-69
2022/07/21 00:41:52;;;;;;;19.60;17.80;;;22.20;99.90;;;;;;5025855;28;20207;-70
2022/07/21 00:44:23;;;;;;;19.83;18.03;;;22.20;99.90;;;;;;5019136;28;20721;-70
2022/07/21 00:46:48;;;;;;;20.97;19.27;;;22.20;99.90;;;;;;5005330;28;20362;-70
2022/07/21 00:49:14;;;;;;;22.40;20.40;;;22.10;99.90;;;;;;5006009;28;20927;-70
2022/07/21 00:51:40;;;;;;;21.70;19.87;;;22.20;99.90;;;;;;5005555;28;20699;-68
2022/07/21 00:54:06;;;;;;;20.33;18.63;;;22.10;99.90;;;;;;4995354;28;20225;-68
2022/07/21 00:56:31;;;;;;;21.53;19.63;;;22.10;99.90;;;;;;5019288;28;20534;-68
2022/07/21 00:58:57;;;;;;;23.60;21.70;;;22.00;99.90;;;;;;5025455;28;20183;-69
2022/07/21 01:01:23;;;;;;;22.67;20.50;;;22.00;99.90;;;;;;5025567;28;20235;-68
2022/07/21 01:03:48;;;;;;;19.30;17.70;;;22.00;99.90;;;;;;5023454;28;20233;-68
2022/07/21 01:06:14;;;;;;;23.67;21.50;;;22.10;99.90;;;;;;5009425;28;20615;-70
2022/07/21 01:08:39;;;;;;;19.43;17.70;;;22.20;99.90;;;;;;5025040;28;20281;-68
2022/07/21 01:11:05;;;;;;;19.27;17.77;;;22.30;99.90;;;;;;5025184;28;20234;-69
2022/07/21 01:13:31;;;;;;;20.30;18.50;;;22.50;99.90;;;;;;5021086;28;20175;-71
2022/07/21 01:15:57;;;;;;;20.07;18.37;;;22.50;99.90;;;;;;5015232;28;20239;-68
2022/07/21 01:18:23;;;;;;;20.27;18.57;;;22.50;99.90;;;;;;5005197;28;20841;-69
2022/07/21 01:20:54;;;;;;;19.67;18.03;;;22.50;99.90;;;;;;5013509;28;20277;-70
2022/07/21 01:23:23;;;;;;;19.77;18.17;;;22.50;99.90;;;;;;5024462;28;20214;-69
2022/07/21 01:25:50;;;;;;;19.10;17.50;;;22.60;99.90;;;;;;5024928;28;20934;-68
2022/07/21 01:28:16;;;;;;;22.10;20.30;;;22.60;99.90;;;;;;5024605;28;20762;-69
2022/07/21 01:30:42;;;;;;;18.00;16.50;;;22.60;99.90;;;;;;5023912;28;20429;-68
2022/07/21 01:33:08;;;;;;;19.10;17.50;;;22.60;99.90;;;;;;5022873;28;20908;-68
2022/07/21 01:35:33;;;;;;;19.90;18.00;;;22.60;99.90;;;;;;5005197;28;20294;-68
2022/07/21 01:38:00;;;;;;;19.47;17.70;;;22.50;99.90;;;;;;5015994;28;20512;-68
2022/07/21 01:43:10;;;;;;;18.97;17.43;;;22.40;99.90;;;;;;5024476;28;21564;-69
2022/07/21 01:45:35;;;;;;;19.20;17.60;;;22.20;99.90;;;;;;5017744;28;20533;-69
2022/07/21 01:48:01;;;;;;;18.13;16.57;;;22.10;99.90;;;;;;4997466;28;20187;-68
2022/07/21 01:50:27;;;;;;;20.10;18.10;;;22.10;99.90;;;;;;5007558;28;20219;-68
2022/07/21 01:52:54;;;;;;;16.90;15.40;;;21.90;99.90;;;;;;5014761;28;20422;-67
2022/07/21 01:55:20;;;;;;;17.40;16.00;;;21.90;99.90;;;;;;5023621;28;20207;-70
2022/07/21 01:57:46;;;;;;;17.97;16.37;;;21.90;99.90;;;;;;5006899;28;20431;-69
2022/07/21 02:00:12;;;;;;;20.10;18.00;;;21.90;99.90;;;;;;5003846;28;20450;-70
2022/07/21 02:02:38;;;;;;;18.00;16.50;;;21.80;99.90;;;;;;4987029;28;20650;-69
2022/07/21 02:05:03;;;;;;;17.33;15.43;;;21.90;99.90;;;;;;5004326;28;20192;-67
2022/07/21 02:07:29;;;;;;;16.53;15.13;;;22.00;99.90;;;;;;5004306;28;20175;-69
2022/07/21 02:09:55;;;;;;;15.57;14.17;;;22.20;99.90;;;;;;5003860;28;20187;-68
2022/07/21 02:12:20;;;;;;;15.33;13.77;;;22.30;99.90;;;;;;5006378;28;20198;-69
2022/07/21 02:14:46;;;;;;;15.73;14.33;;;22.20;99.90;;;;;;5018269;28;20210;-69
2022/07/21 02:17:11;;;;;;;16.87;15.37;;;22.20;99.90;;;;;;5004594;28;20184;-70
2022/07/21 02:19:37;;;;;;;14.07;12.97;;;22.30;99.90;;;;;;5019111;28;20262;-69
2022/07/21 02:22:03;;;;;;;14.23;13.00;;;22.10;99.90;;;;;;5006944;28;20196;-68
2022/07/21 02:24:28;;;;;;;15.33;14.03;;;22.20;99.90;;;;;;5004408;28;20194;-69
2022/07/21 02:26:54;;;;;;;13.90;12.57;;;22.30;99.90;;;;;;5004435;28;20234;-69
2022/07/21 02:29:19;;;;;;;15.00;13.70;;;22.10;99.90;;;;;;5004382;28;20176;-69
2022/07/21 02:31:45;;;;;;;13.03;11.73;;;22.10;99.90;;;;;;5011858;28;20192;-69
2022/07/21 02:34:10;;;;;;;14.23;13.03;;;22.00;99.90;;;;;;5007332;28;20626;-68
2022/07/21 02:36:36;;;;;;;12.93;11.77;;;22.00;99.90;;;;;;5008603;28;20256;-70
2022/07/21 02:39:02;;;;;;;12.10;11.20;;;22.10;99.90;;;;;;5023762;28;20266;-69
2022/07/21 02:41:27;;;;;;;12.13;11.03;;;22.10;99.90;;;;;;5000402;28;20207;-67
2022/07/21 02:43:53;;;;;;;12.80;11.63;;;22.10;99.90;;;;;;4992404;28;20180;-68
2022/07/21 02:46:19;;;;;;;12.53;11.17;;;22.20;99.90;;;;;;5009296;28;20175;-68
2022/07/21 02:48:44;;;;;;;11.87;10.80;;;22.20;99.90;;;;;;5023782;28;20628;-68
2022/07/21 02:51:10;;;;;;;14.67;13.03;;;22.20;99.90;;;;;;5005381;28;20210;-67
2022/07/21 02:53:35;;;;;;;12.20;11.20;;;22.20;99.90;;;;;;5023505;28;20183;-68
2022/07/21 02:56:01;;;;;;;11.83;10.67;;;22.20;99.90;;;;;;5007961;28;20199;-68
2022/07/21 02:58:29;;;;;;;11.90;11.00;;;21.90;99.90;;;;;;5006975;28;20254;-68
2022/07/21 03:00:58;;;;;;;11.87;10.83;;;22.00;99.90;;;;;;5023406;28;20210;-69
2022/07/21 03:03:26;;;;;;;13.20;12.00;;;22.00;99.90;;;;;;5015081;28;20403;-68
2022/07/21 03:05:52;;;;;;;11.30;10.30;;;22.00;99.90;;;;;;5003724;28;20453;-68
2022/07/21 03:08:19;;;;;;;12.37;11.30;;;22.00;99.90;;;;;;5003788;28;20450;-68
2022/07/21 03:10:44;;;;;;;12.37;11.23;;;21.90;99.90;;;;;;5018732;28;20643;-69
2022/07/21 03:13:10;;;;;;;12.63;11.63;;;21.80;99.90;;;;;;5023017;28;20456;-68
2022/07/21 03:15:37;;;;;;;12.80;11.73;;;22.00;99.90;;;;;;5023114;28;20235;-68
2022/07/21 03:18:03;;;;;;;12.00;10.90;;;22.00;99.90;;;;;;5022827;28;20428;-69
2022/07/21 03:20:31;;;;;;;10.10;9.33;;;22.10;99.90;;;;;;5022918;28;20536;-68
2022/07/21 03:22:57;;;;;;;11.60;10.70;;;22.20;99.90;;;;;;5018961;28;20403;-67
2022/07/21 03:25:23;;;;;;;12.00;10.87;;;22.20;99.90;;;;;;5022533;28;20524;-68
2022/07/21 03:27:50;;;;;;;10.10;9.20;;;22.10;99.90;;;;;;5023216;28;20433;-67
2022/07/21 03:30:16;;;;;;;11.30;10.40;;;22.10;99.90;;;;;;5022726;28;20472;-67
2022/07/21 03:32:43;;;;;;;10.97;10.07;;;22.10;99.90;;;;;;5020016;28;20512;-68
2022/07/21 03:35:10;;;;;;;11.53;10.33;;;22.20;99.90;;;;;;5003209;28;20434;-68
2022/07/21 03:37:42;;;;;;;11.47;10.50;;;22.20;99.90;;;;;;5012773;28;20418;-67
2022/07/21 03:40:09;;;;;;;11.33;10.17;;;22.30;99.90;;;;;;5014369;28;20495;-68
2022/07/21 03:42:35;;;;;;;12.20;11.27;;;22.30;99.90;;;;;;5015924;28;20399;-69
2022/07/21 03:45:00;;;;;;;10.20;9.40;;;22.20;99.90;;;;;;5003312;28;20496;-68
2022/07/21 03:47:26;;;;;;;10.27;9.47;;;22.20;99.90;;;;;;5003610;28;20203;-69
2022/07/21 03:49:51;;;;;;;9.27;8.57;;;22.30;99.90;;;;;;5003475;28;20590;-70
2022/07/21 03:52:17;;;;;;;9.17;8.47;;;22.30;99.90;;;;;;5005639;28;21237;-69
2022/07/21 03:54:42;;;;;;;10.20;9.37;;;22.30;99.90;;;;;;5026182;28;20203;-69
2022/07/21 03:57:08;;;;;;;10.63;9.73;;;22.30;99.90;;;;;;5026412;28;20182;-68
2022/07/21 03:59:34;;;;;;;11.87;10.77;;;22.30;99.90;;;;;;5026037;28;20236;-69
2022/07/21 04:01:59;;;;;;;10.47;9.37;;;21.90;99.90;;;;;;5008988;28;20243;-69
2022/07/21 04:04:25;;;;;;;9.87;8.97;;;22.00;99.90;;;;;;5006486;28;20175;-69
2022/07/21 04:06:50;;;;;;;11.37;10.30;;;21.90;99.90;;;;;;5006707;28;20176;-67
2022/07/21 04:09:17;;;;;;;10.87;9.97;;;21.90;99.90;;;;;;5006174;28;20180;-68
2022/07/21 04:11:43;;;;;;;11.10;9.80;;;22.00;99.90;;;;;;5006657;28;20674;-69
2022/07/21 04:14:08;;;;;;;12.20;11.13;;;22.10;99.90;;;;;;5005890;28;20409;-69
2022/07/21 04:16:34;;;;;;;11.53;10.43;;;22.20;99.90;;;;;;5006317;28;20451;-69
2022/07/21 04:19:00;;;;;;;11.37;10.07;;;22.10;99.90;;;;;;5006624;28;20176;-69
2022/07/21 04:21:25;;;;;;;12.43;11.37;;;21.90;99.90;;;;;;5006582;28;20250;-69
2022/07/21 04:23:51;;;;;;;11.30;10.40;;;22.00;99.90;;;;;;5019929;28;20175;-68
2022/07/21 04:26:16;;;;;;;12.93;11.57;;;22.00;99.90;;;;;;5006067;28;20641;-67
2022/07/21 04:28:42;;;;;;;12.20;10.93;;;22.00;99.90;;;;;;5005839;28;20207;-68
2022/07/21 04:31:07;;;;;;;12.43;11.40;;;22.00;99.90;;;;;;5006141;28;20200;-68
2022/07/21 04:33:33;;;;;;;13.70;12.40;;;21.80;99.90;;;;;;5006152;28;20685;-68
2022/07/21 04:35:59;;;;;;;15.60;14.17;;;21.80;99.90;;;;;;5006021;28;20196;-69
2022/07/21 04:38:24;;;;;;;12.87;11.67;;;21.70;99.90;;;;;;5006455;28;20173;-67
2022/07/21 04:40:50;;;;;;;11.67;10.77;;;21.60;99.90;;;;;;5005700;28;20191;-68
2022/07/21 04:43:15;;;;;;;14.97;13.77;;;21.60;99.90;;;;;;5015218;28;20515;-68
2022/07/21 04:45:41;;;;;;;11.90;10.93;;;21.50;99.90;;;;;;5022417;28;20234;-67
2022/07/21 04:48:07;;;;;;;12.30;11.30;;;21.50;99.90;;;;;;5006432;28;20172;-69
2022/07/21 04:50:32;;;;;;;13.80;12.70;;;21.60;99.90;;;;;;5005594;28;20215;-69
2022/07/21 04:52:58;;;;;;;12.80;11.70;;;21.60;99.90;;;;;;5006785;28;20180;-67
2022/07/21 04:55:24;;;;;;;12.33;11.23;;;21.60;99.90;;;;;;5015058;28;20199;-69
2022/07/21 04:57:52;;;;;;;13.00;11.80;;;21.50;99.90;;;;;;5014920;28;20461;-68
2022/07/21 05:00:21;;;;;;;13.03;11.93;;;21.50;99.90;;;;;;5014497;28;20706;-69
2022/07/21 05:02:47;;;;;;;12.27;11.23;;;21.30;99.90;;;;;;5011485;28;20805;-70
2022/07/21 05:05:13;;;;;;;10.60;9.63;;;21.20;99.90;;;;;;5020631;28;20418;-68
2022/07/21 05:07:39;;;;;;;10.90;9.87;;;21.30;99.90;;;;;;5034420;28;20505;-68
2022/07/21 05:10:07;;;;;;;11.00;10.10;;;21.40;99.90;;;;;;5033878;28;20437;-68
2022/07/21 05:12:33;;;;;;;11.60;10.60;;;21.50;99.90;;;;;;5034463;28;20410;-68
2022/07/21 05:14:58;;;;;;;11.23;10.33;;;21.50;99.90;;;;;;5033884;28;20442;-68
2022/07/21 05:17:24;;;;;;;13.43;12.23;;;21.50;99.90;;;;;;5034463;28;20440;-68
2022/07/21 05:19:50;;;;;;;11.90;10.57;;;21.50;99.90;;;;;;5034537;28;20159;-66
2022/07/21 05:22:16;;;;;;;12.00;11.00;;;21.70;99.90;;;;;;5025813;28;20342;-68
2022/07/21 05:24:42;;;;;;;12.40;11.40;;;21.80;99.90;;;;;;5002920;28;20210;-67
2022/07/21 05:27:08;;;;;;;10.47;9.47;;;21.90;99.90;;;;;;5004028;28;20407;-69
2022/07/21 05:29:33;;;;;;;10.67;9.77;;;22.00;99.90;;;;;;5009237;28;20311;-69
2022/07/21 05:31:59;;;;;;;12.43;11.23;;;22.10;99.90;;;;;;5009042;28;20203;-71
2022/07/21 05:34:25;;;;;;;12.80;11.60;;;22.20;99.90;;;;;;5006569;28;20540;-70
2022/07/21 05:36:51;;;;;;;11.60;10.70;;;22.30;99.90;;;;;;5005114;28;20202;-68
2022/07/21 05:39:16;;;;;;;11.07;10.07;;;22.30;99.90;;;;;;5013789;28;20406;-70
2022/07/21 05:41:42;;;;;;;11.33;10.20;;;22.30;99.90;;;;;;5005185;28;20656;-71
2022/07/21 05:44:07;;;;;;;11.23;10.30;;;22.40;99.90;;;;;;5004320;28;20172;-70
2022/07/21 05:46:33;;;;;;;10.47;9.60;;;22.50;99.90;;;;;;5013198;28;20182;-66
2022/07/21 05:48:59;;;;;;;11.60;10.50;;;22.60;99.90;;;;;;5024283;28;20523;-68
2022/07/21 05:51:25;;;;;;;11.13;10.23;;;22.70;99.90;;;;;;5032403;28;20452;-65
2022/07/21 05:53:50;;;;;;;10.70;9.80;;;22.80;99.90;;;;;;5033437;28;20534;-67
2022/07/21 05:56:16;;;;;;;12.83;11.63;;;22.70;99.90;;;;;;5033080;28;20217;-67
2022/07/21 05:58:41;;;;;;;11.93;10.70;;;22.80;99.90;;;;;;5020688;28;20199;-68
2022/07/21 06:01:12;;;;;;;12.23;10.47;;;22.90;99.90;;;;;;5013317;28;20180;-66
2022/07/21 06:03:58;;;;;;;11.23;10.23;;;22.90;99.90;;;;;;5014828;28;20152;-67
2022/07/21 06:06:23;;;;;;;11.20;10.30;;;23.10;99.90;;;;;;5013110;28;20430;-68
2022/07/21 06:08:49;;;;;;;12.30;10.17;;;22.90;99.90;;;;;;5012622;28;20421;-67
2022/07/21 06:11:17;;;;;;;12.60;11.30;;;23.00;99.90;;;;;;5013298;28;20187;-67
2022/07/21 06:13:44;;;;;;;11.23;10.13;;;23.20;99.90;;;;;;5012969;28;20164;-68
2022/07/21 06:16:10;;;;;;;11.47;10.40;;;23.00;99.90;;;;;;5012912;28;20458;-67
2022/07/21 06:18:35;;;;;;;11.90;10.80;;;23.00;99.90;;;;;;5013419;28;20486;-67
2022/07/21 06:21:01;;;;;;;11.47;10.57;;;23.00;99.90;;;;;;5013409;28;20180;-67
2022/07/21 06:23:27;;;;;;;12.80;11.57;;;23.20;99.90;;;;;;5013253;28;20600;-67
2022/07/21 06:25:54;;;;;;;11.93;10.87;;;23.00;99.90;;;;;;5013645;28;20465;-67
2022/07/21 06:28:20;;;;;;;10.10;9.30;;;23.10;99.90;;;;;;5013462;28;20415;-66
2022/07/21 06:30:46;;;;;;;11.13;10.23;;;23.00;99.90;;;;;;5013119;28;20430;-67
2022/07/21 06:33:11;;;;;;;10.90;9.77;;;23.10;99.90;;;;;;5013123;28;20762;-65
2022/07/21 06:35:38;;;;;;;10.90;10.00;;;23.30;99.90;;;;;;5013069;28;20192;-67
2022/07/21 06:38:04;;;;;;;10.13;9.23;;;23.20;99.90;;;;;;5012636;28;20164;-67
2022/07/21 06:40:29;;;;;;;11.13;9.47;;;23.30;99.90;;;;;;5013175;28;20423;-67
2022/07/21 06:42:55;;;;;;;11.37;10.37;;;23.70;99.90;;;;;;5012851;28;20152;-67
2022/07/21 06:45:22;;;;;;;12.37;11.07;;;23.90;99.90;;;;;;5013375;28;20195;-67
2022/07/21 06:47:47;;;;;;;11.27;10.27;;;24.00;99.90;;;;;;5012929;28;20167;-67
2022/07/21 06:50:13;;;;;;;11.20;10.30;;;23.60;99.90;;;;;;5012607;28;20806;-68
2022/07/21 06:52:39;;;;;;;10.63;9.73;;;23.60;99.90;;;;;;5012748;28;20160;-68
2022/07/21 06:55:06;;;;;;;11.60;10.70;;;23.30;99.90;;;;;;5012576;28;20971;-68
2022/07/21 06:57:36;;;;;;;10.30;9.30;;;23.50;99.90;;;;;;5012066;28;20178;-68
2022/07/21 07:00:06;;;;;;;11.07;10.07;;;23.60;99.90;;;;;;5012739;28;20401;-66
2022/07/21 07:02:32;;;;;;;10.97;9.40;;;23.60;99.90;;;;;;5013036;28;20421;-68
2022/07/21 07:04:57;;;;;;;9.90;9.10;;;23.50;99.90;;;;;;5013041;28;20759;-68
2022/07/21 07:07:23;;;;;;;9.93;9.07;;;23.80;99.90;;;;;;5012807;28;20168;-67
2022/07/21 07:09:49;;;;;;;10.30;9.27;;;23.90;99.90;;;;;;5012464;28;20495;-67
2022/07/21 07:12:14;;;;;;;10.57;9.77;;;23.90;99.90;;;;;;5012741;28;20188;-68
2022/07/21 07:14:40;;;;;;;9.65;8.95;;;23.60;99.90;;;;;;5012357;28;20407;-68
2022/07/21 07:17:05;;;;;;;10.50;9.57;;;23.40;99.90;;;;;;5013319;28;20203;-68
2022/07/21 07:19:31;;;;;;;9.53;8.73;;;23.40;99.90;;;;;;5013166;28;20574;-69
2022/07/21 07:21:57;;;;;;;9.37;8.60;;;23.60;99.90;;;;;;5012607;28;20273;-70
2022/07/21 07:24:23;;;;;;;10.10;9.13;;;23.70;99.90;;;;;;5012691;28;20157;-68
2022/07/21 07:26:49;;;;;;;10.03;9.13;;;23.70;99.90;;;;;;4995094;28;20919;-68
2022/07/21 07:29:15;;;;;;;9.17;8.33;;;23.70;99.90;;;;;;5016708;28;20192;-69
2022/07/21 07:31:41;;;;;;;9.23;8.40;;;23.90;99.90;;;;;;5016121;28;20203;-67
2022/07/21 07:34:07;;;;;;;10.00;9.20;;;23.90;99.90;;;;;;5016540;28;20914;-68
2022/07/21 07:36:34;;;;;;;9.83;9.00;;;24.00;99.90;;;;;;5016388;28;20517;-68
2022/07/21 07:39:01;;;;;;;10.00;9.10;;;24.20;99.90;;;;;;5016415;28;20419;-68
2022/07/21 07:41:28;;;;;;;10.07;9.27;;;24.00;99.90;;;;;;5016330;28;20502;-67
2022/07/21 07:43:54;;;;;;;10.13;9.33;;;24.20;99.90;;;;;;5016746;28;20403;-67
2022/07/21 07:46:20;;;;;;;11.03;10.03;;;24.40;99.90;;;;;;5016496;28;20410;-68
2022/07/21 07:48:47;;;;;;;9.67;8.87;;;24.50;99.90;;;;;;4998412;28;20172;-68
2022/07/21 07:51:13;;;;;;;10.23;9.00;;;24.70;99.90;;;;;;5016088;28;20442;-68
2022/07/21 07:53:40;;;;;;;8.80;8.10;;;24.60;99.90;;;;;;5015825;28;20793;-68
2022/07/21 07:56:06;;;;;;;9.37;8.47;;;24.50;99.90;;;;;;5015739;28;20441;-68
2022/07/21 07:58:32;;;;;;;9.67;8.70;;;24.50;99.90;;;;;;5016316;28;20426;-68
2022/07/21 08:00:58;;;;;;;10.77;9.80;;;24.60;99.90;;;;;;4998241;28;20431;-66
2022/07/21 08:03:25;;;;;;;9.70;8.93;;;24.80;99.90;;;;;;5016249;28;20507;-67
2022/07/21 08:05:53;;;;;;;8.50;7.77;;;25.20;99.90;;;;;;5016123;28;20176;-67
2022/07/21 08:08:19;;;;;;;10.23;9.13;;;25.10;99.90;;;;;;5015794;28;20761;-67
2022/07/21 08:10:45;;;;;;;9.07;8.17;;;25.20;99.90;;;;;;5015548;28;20434;-67
2022/07/21 08:13:16;;;;;;;8.30;7.60;;;25.40;99.90;;;;;;5016102;28;20172;-67
2022/07/21 08:15:43;;;;;;;9.87;9.13;;;25.60;99.90;;;;;;5010188;28;20451;-67
2022/07/21 08:18:09;;;;;;;8.97;8.27;;;25.80;99.90;;;;;;5009718;28;20875;-66
2022/07/21 08:20:35;;;;;;;9.47;8.60;;;26.00;99.90;;;;;;5014573;28;20481;-68
2022/07/21 08:23:01;;;;;;;9.47;7.73;;;25.90;99.90;;;;;;5015285;28;20210;-67
2022/07/21 08:25:26;;;;;;;8.03;7.17;;;25.90;99.90;;;;;;5015573;28;20438;-68
2022/07/21 08:27:52;;;;;;;8.30;7.00;;;25.70;99.90;;;;;;5015017;28;20176;-68
2022/07/21 08:30:18;;;;;;;8.20;7.40;;;25.60;99.90;;;;;;5014757;28;20190;-67
2022/07/21 08:32:43;;;;;;;8.80;7.77;;;25.70;99.90;;;;;;5015436;28;20243;-68
2022/07/21 08:35:09;;;;;;;10.17;7.87;;;25.40;99.90;;;;;;5015176;28;20183;-67
2022/07/21 08:37:36;;;;;;;8.00;7.40;;;25.30;99.90;;;;;;5015063;28;20550;-67
2022/07/21 08:40:04;;;;;;;9.20;8.40;;;25.60;99.90;;;;;;5014849;28;20588;-68
2022/07/21 08:42:30;;;;;;;8.53;7.73;;;26.00;99.90;;;;;;5014065;28;20473;-67
2022/07/21 08:44:55;;;;;;;8.73;7.93;;;26.20;99.90;;;;;;5014730;28;20452;-69
2022/07/21 08:47:21;;;;;;;12.03;7.57;;;26.20;99.90;;;;;;5014965;28;20176;-69
2022/07/21 08:49:47;;;;;;;8.33;7.20;;;26.20;99.90;;;;;;5014747;28;20202;-69
2022/07/21 08:52:13;;;;;;;7.90;7.10;;;26.00;99.90;;;;;;5014211;28;20207;-67
2022/07/21 08:54:38;;;;;;;7.40;6.60;;;26.00;99.90;;;;;;5015043;28;20254;-67
2022/07/21 08:57:04;;;;;;;7.90;7.10;;;26.20;99.90;;;;;;5015130;28;20605;-67
2022/07/21 08:59:29;;;;;;;8.27;7.50;;;26.30;99.90;;;;;;5015041;28;20160;-67
2022/07/21 09:01:55;;;;;;;7.47;6.87;;;26.00;99.90;;;;;;5013023;28;20583;-66
2022/07/21 09:04:23;;;;;;;8.53;7.83;;;25.70;99.90;;;;;;5014866;28;20246;-67
2022/07/21 09:06:52;;;;;;;8.50;7.77;;;25.60;99.90;;;;;;5015544;28;20532;-67
2022/07/21 09:09:20;;;;;;;8.57;7.27;;;25.60;99.90;;;;;;5013844;28;20450;-66
2022/07/21 09:11:45;;;;;;;8.37;7.47;;;25.80;99.90;;;;;;5014427;28;20950;-67
2022/07/21 09:14:15;;;;;;;7.83;7.13;;;25.90;99.90;;;;;;5014470;28;20518;-67
2022/07/21 09:16:46;;;;;;;7.27;6.53;;;25.80;99.90;;;;;;5014479;28;20647;-67
2022/07/21 09:19:31;;;;;;;6.93;6.33;;;25.80;99.90;;;;;;5014838;28;20395;-67
2022/07/21 09:21:58;;;;;;;7.93;6.93;;;25.90;99.90;;;;;;4994617;28;20412;-69
2022/07/21 09:24:32;;;;;;;7.47;6.80;;;26.00;99.90;;;;;;4994503;28;20885;-68
2022/07/21 09:27:11;;;;;;;6.90;6.30;;;26.20;99.90;;;;;;4994973;28;20381;-67
2022/07/21 09:29:42;;;;;;;6.13;5.53;;;26.20;99.90;;;;;;5008826;28;20435;-68
2022/07/21 09:32:13;;;;;;;6.77;6.17;;;26.10;99.90;;;;;;5012931;28;20411;-67
2022/07/21 09:34:39;;;;;;;7.23;6.57;;;26.20;99.90;;;;;;5014378;28;20434;-67
2022/07/21 09:37:07;;;;;;;7.57;6.97;;;26.20;99.90;;;;;;5013879;28;20435;-68
2022/07/21 09:39:50;;;;;;;7.77;6.97;;;26.20;99.90;;;;;;4996336;28;20195;-68
2022/07/21 09:42:27;;;;;;;9.10;7.40;;;26.20;99.90;;;;;;5014138;28;20769;-66
2022/07/21 09:45:06;;;;;;;6.90;6.30;;;26.10;99.90;;;;;;5014196;28;20401;-67
2022/07/21 09:47:33;;;;;;;6.87;6.37;;;26.50;99.90;;;;;;5013603;28;20852;-68
2022/07/21 09:50:00;;;;;;;6.73;6.23;;;26.70;99.90;;;;;;5013055;28;20467;-68
2022/07/21 09:52:36;;;;;;;7.10;6.50;;;26.90;99.90;;;;;;5014007;28;20598;-67
2022/07/21 09:55:20;;;;;;;7.83;7.13;;;27.00;99.90;;;;;;4996140;28;20449;-67
2022/07/21 09:57:46;;;;;;;7.40;6.70;;;27.10;99.90;;;;;;5014489;28;20379;-67
2022/07/21 10:00:16;;;;;;;6.57;5.83;;;27.00;99.90;;;;;;5013913;28;20426;-67
2022/07/21 10:02:44;;;;;;;6.63;5.93;;;26.90;99.90;;;;;;5013645;28;20164;-69
2022/07/21 10:05:18;;;;;;;7.43;5.70;;;26.80;99.90;;;;;;5013650;28;20435;-67
2022/07/21 10:07:45;;;;;;;6.40;5.90;;;27.10;99.90;;;;;;5013881;28;20474;-67
2022/07/21 10:10:13;;;;;;;6.00;5.50;;;27.30;99.60;;;;;;5013675;28;20414;-67
2022/07/21 10:12:39;;;;;;;6.40;5.90;;;27.10;99.00;;;;;;5013578;28;20403;-67
2022/07/21 10:15:05;;;;;;;6.50;5.90;;;27.30;98.60;;;;;;5013199;28;20957;-69
2022/07/21 10:17:31;;;;;;;5.10;4.70;;;27.30;98.20;;;;;;5012985;28;20398;-67
2022/07/21 10:20:10;;;;;;;4.87;4.47;;;27.30;98.40;;;;;;5013818;28;20407;-68
2022/07/21 10:22:51;;;;;;;5.40;5.00;;;27.50;98.50;;;;;;5013685;28;20155;-68
2022/07/21 10:25:17;;;;;;;4.73;4.33;;;27.60;97.60;;;;;;5012952;28;20495;-68
2022/07/21 10:28:35;;;;;;;5.50;5.10;;;27.90;96.70;;;;;;5012971;28;20411;-68
2022/07/21 10:31:14;;;;;;;5.23;4.83;;;27.90;95.20;;;;;;5007318;28;20524;-67
2022/07/21 10:33:45;;;;;;;4.60;4.20;;;27.70;95.60;;;;;;5012741;28;20391;-68
2022/07/21 10:36:35;;;;;;;4.93;4.53;;;27.90;95.50;;;;;;5013145;28;20477;-68
2022/07/21 10:39:06;;;;;;;4.37;4.07;;;27.90;95.20;;;;;;5013294;28;20413;-67
2022/07/21 10:41:45;;;;;;;4.67;4.30;;;28.10;94.50;;;;;;5013137;28;20430;-67
2022/07/21 10:44:32;;;;;;;4.80;4.37;;;27.70;94.70;;;;;;5012821;28;20497;-67
2022/07/21 10:47:09;;;;;;;10.43;4.80;;;27.60;95.10;;;;;;5012831;28;20819;-67
2022/07/21 10:49:42;;;;;;;5.50;5.00;;;27.70;94.70;;;;;;5012853;28;20390;-67
2022/07/21 10:52:39;;;;;;;4.77;4.37;;;28.00;94.60;;;;;;5012768;28;20442;-67
2022/07/21 10:55:23;;;;;;;6.50;4.03;;;28.30;93.10;;;;;;5013119;28;20458;-67
2022/07/21 10:58:08;;;;;;;4.60;4.20;;;28.20;92.80;;;;;;5013023;28;20413;-67
2022/07/21 11:00:36;;;;;;;4.43;4.03;;;28.10;92.80;;;;;;5013375;28;20414;-67
2022/07/21 11:03:04;;;;;;;4.87;4.40;;;28.30;92.90;;;;;;5014101;28;20403;-67
2022/07/21 11:05:32;;;;;;;7.37;4.77;;;28.40;92.70;;;;;;5015891;28;20449;-67
2022/07/21 11:08:13;;;;;;;6.30;4.47;;;28.60;93.10;;;;;;5013679;28;20482;-66
2022/07/21 11:10:46;;;;;;;4.50;4.10;;;28.80;92.00;;;;;;5015123;28;20798;-67
2022/07/21 11:13:13;;;;;;;4.30;4.00;;;28.90;93.20;;;;;;5016518;28;20383;-67
2022/07/21 11:15:55;;;;;;;4.10;3.80;;;28.60;92.40;;;;;;5015627;28;20447;-67
2022/07/21 11:18:23;;;;;;;5.40;4.90;;;28.60;92.70;;;;;;5016526;28;20425;-67
2022/07/21 11:21:12;;;;;;;4.70;4.30;;;28.70;93.60;;;;;;5015366;28;20481;-69
2022/07/21 11:23:42;;;;;;;4.00;3.60;;;28.70;91.80;;;;;;5016864;28;20469;-68
2022/07/21 11:26:09;;;;;;;4.93;4.50;;;29.00;91.00;;;;;;5016328;28;20442;-68
2022/07/21 11:28:35;;;;;;;4.40;4.00;;;29.50;89.90;;;;;;4998794;28;20413;-68
2022/07/21 11:31:09;;;;;;;4.63;4.00;;;29.70;87.00;;;;;;5016616;28;20513;-68
2022/07/21 11:33:43;;;;;;;4.10;3.80;;;29.90;89.70;;;;;;5015990;28;20256;-68
2022/07/21 11:36:09;;;;;;;5.10;4.00;;;30.50;85.50;;;;;;5016424;28;20430;-67
2022/07/21 11:38:35;;;;;;;4.40;4.10;;;30.70;82.40;;;;;;5016086;28;20739;-68
2022/07/21 11:41:18;;;;;;;4.73;4.30;;;30.30;83.40;;;;;;5016270;28;20183;-68
2022/07/21 11:43:45;;;;;;;5.07;4.43;;;29.60;85.70;;;;;;5016044;28;20149;-68
2022/07/21 11:46:12;;;;;;;4.80;4.47;;;29.50;87.50;;;;;;5016784;28;20710;-67
2022/07/21 11:48:38;;;;;;;5.10;4.50;;;29.00;88.10;;;;;;5016514;28;20410;-68
2022/07/21 11:51:06;;;;;;;5.13;4.63;;;28.90;87.90;;;;;;5015978;28;20533;-67
2022/07/21 11:53:32;;;;;;;4.60;4.30;;;28.80;88.90;;;;;;5016000;28;20407;-67
2022/07/21 11:55:58;;;;;;;4.30;4.00;;;28.90;88.10;;;;;;5016314;28;20791;-67
2022/07/21 11:58:24;;;;;;;5.83;5.33;;;28.90;88.10;;;;;;5015260;28;20415;-68
2022/07/21 12:01:04;;;;;;;5.00;4.60;;;28.50;88.30;;;;;;5015644;28;20234;-68
2022/07/21 12:03:30;;;;;;;6.30;4.70;;;28.20;90.00;;;;;;4999682;28;20175;-68
2022/07/21 12:05:56;;;;;;;6.00;4.63;;;28.40;90.30;;;;;;5015485;28;20406;-67
2022/07/21 12:08:23;;;;;;;5.30;4.90;;;28.40;91.40;;;;;;5015782;28;20172;-67
2022/07/21 12:10:48;;;;;;;5.10;4.70;;;28.70;90.80;;;;;;5016361;28;20266;-67
2022/07/21 12:13:14;;;;;;;5.60;5.10;;;28.70;91.60;;;;;;5015029;28;20438;-67
2022/07/21 12:15:41;;;;;;;4.77;4.37;;;29.00;89.70;;;;;;5015472;28;20206;-67
2022/07/21 12:18:19;;;;;;;4.63;4.27;;;29.10;87.40;;;;;;5015991;28;20172;-67
2022/07/21 12:20:45;;;;;;;4.40;4.10;;;29.80;85.40;;;;;;5015467;28;20575;-68
2022/07/21 12:23:30;;;;;;;4.50;4.20;;;30.90;81.40;;;;;;5015942;28;20509;-68
2022/07/21 12:26:00;;;;;;;4.43;4.07;;;33.50;73.60;;;;;;5016666;28;20441;-69
2022/07/21 12:28:43;;;;;;;4.20;3.90;;;35.40;67.40;;;;;;5015784;28;20403;-68
2022/07/21 12:31:14;;;;;;;4.30;3.90;;;34.70;64.50;;;;;;5015481;28;20425;-69
2022/07/21 12:33:40;;;;;;;4.33;4.03;;;33.80;67.00;;;;;;5015333;28;20749;-69
2022/07/21 12:36:09;;;;;;;5.57;5.10;;;32.40;70.30;;;;;;5014969;28;20986;-68
2022/07/21 12:38:45;;;;;;;4.63;4.33;;;31.20;75.30;;;;;;4997906;28;20418;-67
2022/07/21 12:41:16;;;;;;;5.20;4.70;;;30.80;77.50;;;;;;5015149;28;20415;-67